sensor_id;sensor_type;location;lat;lon;timestamp;temperature;humidity
7159;DHT22;63175;52.374;13.132;2023-07-29T00:01:09;19.30;99.90
7159;DHT22;63175;52.374;13.132;2023-07-29T00:03:36;19.20;99.90
7159;DHT22;63175;52.374;13.132;2023-07-29T00:06:03;19.20;99.90
7159;DHT22;63175;52.374;13.132;2023-07-29T00:08:31;19.20;99.90
7159;DHT22;63175;52.374;13.132;2023-07-29T00:10:58;19.20;99.90
7159;DHT22;63175;52.374;13.132;2023-07-29T00:13:24;19.20;99.90
7159;DHT22;63175;52.374;13.132;2023-07-29T00:15:53;19.20;99.90
7159;DHT22;63175;52.374;13.132;2023-07-29T00:18:20;19.10;99.90
7159;DHT22;63175;52.374;13.132;2023-07-29T00:20:47;19.10;99.90
7159;DHT22;63175;52.374;13.132;2023-07-29T00:23:13;19.10;99.90
7159;DHT22;63175;52.374;13.132;2023-07-29T00:25:42;19.10;99.90
7159;DHT22;63175;52.374;13.132;2023-07-29T00:28:09;19.10;99.90
7159;DHT22;63175;52.374;13.132;2023-07-29T00:30:35;19.10;99.90
7159;DHT22;63175;52.374;13.132;2023-07-29T00:33:02;19.00;99.90
7159;DHT22;63175;52.374;13.132;2023-07-29T00:35:29;19.00;99.90
7159;DHT22;63175;52.374;13.132;2023-07-29T00:37:56;19.00;99.90
7159;DHT22;63175;52.374;13.132;2023-07-29T00:40:23;19.00;99.90
7159;DHT22;63175;52.374;13.132;2023-07-29T00:42:51;19.00;99.90
7159;DHT22;63175;52.374;13.132;2023-07-29T00:45:18;18.90;99.90
7159;DHT22;63175;52.374;13.132;2023-07-29T00:47:45;18.80;99.90
7159;DHT22;63175;52.374;13.132;2023-07-29T00:50:13;18.80;99.90
7159;DHT22;63175;52.374;13.132;2023-07-29T00:52:41;18.80;99.90
7159;DHT22;63175;52.374;13.132;2023-07-29T00:55:08;18.70;99.90
7159;DHT22;63175;52.374;13.132;2023-07-29T00:57:35;18.70;99.90
7159;DHT22;63175;52.374;13.132;2023-07-29T01:00:05;18.70;99.90
7159;DHT22;63175;52.374;13.132;2023-07-29T01:02:32;18.70;99.90
7159;DHT22;63175;52.374;13.132;2023-07-29T01:04:59;18.60;99.90
7159;DHT22;63175;52.374;13.132;2023-07-29T01:07:31;18.60;99.90
7159;DHT22;63175;52.374;13.132;2023-07-29T01:10:02;18.50;99.90
7159;DHT22;63175;52.374;13.132;2023-07-29T01:12:36;18.50;99.90
7159;DHT22;63175;52.374;13.132;2023-07-29T01:15:11;18.50;99.90
7159;DHT22;63175;52.374;13.132;2023-07-29T01:17:43;18.40;99.90
7159;DHT22;63175;52.374;13.132;2023-07-29T01:20:14;18.40;99.90
7159;DHT22;63175;52.374;13.132;2023-07-29T01:22:42;18.40;99.90
7159;DHT22;63175;52.374;13.132;2023-07-29T01:25:10;18.40;99.90
7159;DHT22;63175;52.374;13.132;2023-07-29T01:27:37;18.40;99.90
7159;DHT22;63175;52.374;13.132;2023-07-29T01:30:05;18.30;99.90
7159;DHT22;63175;52.374;13.132;2023-07-29T01:32:37;18.30;99.90
7159;DHT22;63175;52.374;13.132;2023-07-29T01:35:14;18.20;99.90
7159;DHT22;63175;52.374;13.132;2023-07-29T01:37:43;18.20;99.90
7159;DHT22;63175;52.374;13.132;2023-07-29T01:40:13;18.20;99.90
7159;DHT22;63175;52.374;13.132;2023-07-29T01:42:40;18.20;99.90
7159;DHT22;63175;52.374;13.132;2023-07-29T01:45:07;18.20;99.90
7159;DHT22;63175;52.374;13.132;2023-07-29T01:47:34;18.20;99.90
7159;DHT22;63175;52.374;13.132;2023-07-29T01:50:02;18.20;99.90
7159;DHT22;63175;52.374;13.132;2023-07-29T01:52:29;18.20;99.90
7159;DHT22;63175;52.374;13.132;2023-07-29T01:54:56;18.20;99.90
7159;DHT22;63175;52.374;13.132;2023-07-29T01:57:24;18.10;99.90
7159;DHT22;63175;52.374;13.132;2023-07-29T01:59:51;18.10;99.90
7159;DHT22;63175;52.374;13.132;2023-07-29T02:02:17;18.00;99.90
7159;DHT22;63175;52.374;13.132;2023-07-29T02:04:44;18.00;99.90
7159;DHT22;63175;52.374;13.132;2023-07-29T02:07:16;18.00;99.90
7159;DHT22;63175;52.374;13.132;2023-07-29T02:09:43;18.00;99.90
7159;DHT22;63175;52.374;13.132;2023-07-29T02:12:10;18.00;99.90
7159;DHT22;63175;52.374;13.132;2023-07-29T02:14:38;18.00;99.90
7159;DHT22;63175;52.374;13.132;2023-07-29T02:17:05;18.00;99.90
7159;DHT22;63175;52.374;13.132;2023-07-29T02:19:32;18.00;99.90
7159;DHT22;63175;52.374;13.132;2023-07-29T02:22:00;18.00;99.90
7159;DHT22;63175;52.374;13.132;2023-07-29T02:24:26;18.00;99.90
7159;DHT22;63175;52.374;13.132;2023-07-29T02:26:53;17.90;99.90
7159;DHT22;63175;52.374;13.132;2023-07-29T02:29:20;17.90;99.90
7159;DHT22;63175;52.374;13.132;2023-07-29T02:31:49;17.80;99.90
7159;DHT22;63175;52.374;13.132;2023-07-29T02:34:16;17.80;99.90
7159;DHT22;63175;52.374;13.132;2023-07-29T02:36:42;17.80;99.90
7159;DHT22;63175;52.374;13.132;2023-07-29T02:39:11;17.70;99.90
7159;DHT22;63175;52.374;13.132;2023-07-29T02:41:37;17.70;99.90
7159;DHT22;63175;52.374;13.132;2023-07-29T02:44:05;17.70;99.90
7159;DHT22;63175;52.374;13.132;2023-07-29T02:46:32;17.70;99.90
7159;DHT22;63175;52.374;13.132;2023-07-29T02:49:01;17.70;99.90
7159;DHT22;63175;52.374;13.132;2023-07-29T02:51:28;17.70;99.90
7159;DHT22;63175;52.374;13.132;2023-07-29T02:53:55;17.70;99.90
7159;DHT22;63175;52.374;13.132;2023-07-29T02:56:22;17.70;99.90
7159;DHT22;63175;52.374;13.132;2023-07-29T02:58:49;17.80;99.90
7159;DHT22;63175;52.374;13.132;2023-07-29T03:01:17;17.80;99.90
7159;DHT22;63175;52.374;13.132;2023-07-29T03:03:44;17.80;99.90
7159;DHT22;63175;52.374;13.132;2023-07-29T03:06:13;17.80;99.90
7159;DHT22;63175;52.374;13.132;2023-07-29T03:08:40;17.80;99.90
7159;DHT22;63175;52.374;13.132;2023-07-29T03:11:09;17.70;99.90
7159;DHT22;63175;52.374;13.132;2023-07-29T03:13:36;17.70;99.90
7159;DHT22;63175;52.374;13.132;2023-07-29T03:16:06;17.70;99.90
7159;DHT22;63175;52.374;13.132;2023-07-29T03:18:33;17.70;99.90
7159;DHT22;63175;52.374;13.132;2023-07-29T03:21:00;17.70;99.90
7159;DHT22;63175;52.374;13.132;2023-07-29T03:23:29;17.70;99.90
7159;DHT22;63175;52.374;13.132;2023-07-29T03:25:57;17.70;99.90
7159;DHT22;63175;52.374;13.132;2023-07-29T03:28:25;17.70;99.90
7159;DHT22;63175;52.374;13.132;2023-07-29T03:30:52;17.70;99.90
7159;DHT22;63175;52.374;13.132;2023-07-29T03:33:19;17.70;99.90
7159;DHT22;63175;52.374;13.132;2023-07-29T03:35:46;17.70;99.90
7159;DHT22;63175;52.374;13.132;2023-07-29T03:38:13;17.70;99.90
7159;DHT22;63175;52.374;13.132;2023-07-29T03:40:42;17.70;99.90
7159;DHT22;63175;52.374;13.132;2023-07-29T03:43:09;17.70;99.90
7159;DHT22;63175;52.374;13.132;2023-07-29T03:45:36;17.70;99.90
7159;DHT22;63175;52.374;13.132;2023-07-29T03:48:04;17.70;99.90
7159;DHT22;63175;52.374;13.132;2023-07-29T03:50:33;17.80;99.90
7159;DHT22;63175;52.374;13.132;2023-07-29T03:53:00;17.80;99.90
7159;DHT22;63175;52.374;13.132;2023-07-29T03:55:27;17.80;99.90
7159;DHT22;63175;52.374;13.132;2023-07-29T03:57:56;17.80;99.90
7159;DHT22;63175;52.374;13.132;2023-07-29T04:00:23;17.80;99.90
7159;DHT22;63175;52.374;13.132;2023-07-29T04:02:50;17.70;99.90
7159;DHT22;63175;52.374;13.132;2023-07-29T04:05:17;17.70;99.90
7159;DHT22;63175;52.374;13.132;2023-07-29T04:07:44;17.70;99.90
7159;DHT22;63175;52.374;13.132;2023-07-29T04:10:11;17.70;99.90
7159;DHT22;63175;52.374;13.132;2023-07-29T04:12:38;17.70;99.90
7159;DHT22;63175;52.374;13.132;2023-07-29T04:15:07;17.70;99.90
7159;DHT22;63175;52.374;13.132;2023-07-29T04:17:35;17.70;99.90
7159;DHT22;63175;52.374;13.132;2023-07-29T04:20:02;17.80;99.90
7159;DHT22;63175;52.374;13.132;2023-07-29T04:22:29;17.80;99.90
7159;DHT22;63175;52.374;13.132;2023-07-29T04:24:56;17.80;99.90
7159;DHT22;63175;52.374;13.132;2023-07-29T04:27:23;17.80;99.90
7159;DHT22;63175;52.374;13.132;2023-07-29T04:29:50;17.80;99.90
7159;DHT22;63175;52.374;13.132;2023-07-29T04:32:18;17.80;99.90
7159;DHT22;63175;52.374;13.132;2023-07-29T04:34:45;17.80;99.90
7159;DHT22;63175;52.374;13.132;2023-07-29T04:37:12;17.80;99.90
7159;DHT22;63175;52.374;13.132;2023-07-29T04:39:39;17.80;99.90
7159;DHT22;63175;52.374;13.132;2023-07-29T04:42:06;17.90;99.90
7159;DHT22;63175;52.374;13.132;2023-07-29T04:44:33;17.90;99.90
7159;DHT22;63175;52.374;13.132;2023-07-29T04:47:00;17.90;99.90
7159;DHT22;63175;52.374;13.132;2023-07-29T04:49:28;17.90;99.90
7159;DHT22;63175;52.374;13.132;2023-07-29T04:51:55;18.00;99.90
7159;DHT22;63175;52.374;13.132;2023-07-29T04:54:21;18.00;99.90
7159;DHT22;63175;52.374;13.132;2023-07-29T04:56:48;18.00;99.90
7159;DHT22;63175;52.374;13.132;2023-07-29T04:59:15;18.10;99.90
7159;DHT22;63175;52.374;13.132;2023-07-29T05:01:42;18.20;99.90
7159;DHT22;63175;52.374;13.132;2023-07-29T05:04:09;18.30;99.90
7159;DHT22;63175;52.374;13.132;2023-07-29T05:06:37;18.30;99.90
7159;DHT22;63175;52.374;13.132;2023-07-29T05:09:14;18.40;99.90
7159;DHT22;63175;52.374;13.132;2023-07-29T05:11:41;18.40;99.90
7159;DHT22;63175;52.374;13.132;2023-07-29T05:14:09;18.50;99.90
7159;DHT22;63175;52.374;13.132;2023-07-29T05:16:35;18.50;99.90
7159;DHT22;63175;52.374;13.132;2023-07-29T05:19:02;18.60;99.90
7159;DHT22;63175;52.374;13.132;2023-07-29T05:21:29;18.60;99.90
7159;DHT22;63175;52.374;13.132;2023-07-29T05:23:58;18.70;99.90
7159;DHT22;63175;52.374;13.132;2023-07-29T05:26:24;18.80;99.90
7159;DHT22;63175;52.374;13.132;2023-07-29T05:28:51;18.80;99.90
7159;DHT22;63175;52.374;13.132;2023-07-29T05:31:18;18.90;99.90
7159;DHT22;63175;52.374;13.132;2023-07-29T05:33:45;19.00;99.90
7159;DHT22;63175;52.374;13.132;2023-07-29T05:36:12;19.00;99.90
7159;DHT22;63175;52.374;13.132;2023-07-29T05:38:39;19.10;99.90
7159;DHT22;63175;52.374;13.132;2023-07-29T05:41:07;19.10;99.90
7159;DHT22;63175;52.374;13.132;2023-07-29T05:43:34;19.20;99.90
7159;DHT22;63175;52.374;13.132;2023-07-29T05:46:00;19.20;99.90
7159;DHT22;63175;52.374;13.132;2023-07-29T05:48:27;19.20;99.90
7159;DHT22;63175;52.374;13.132;2023-07-29T05:50:54;19.20;99.90
7159;DHT22;63175;52.374;13.132;2023-07-29T05:53:21;19.20;99.90
7159;DHT22;63175;52.374;13.132;2023-07-29T05:55:48;19.20;99.90
7159;DHT22;63175;52.374;13.132;2023-07-29T05:58:16;19.30;99.90
7159;DHT22;63175;52.374;13.132;2023-07-29T06:00:43;19.30;99.90
7159;DHT22;63175;52.374;13.132;2023-07-29T06:03:10;19.30;99.90
7159;DHT22;63175;52.374;13.132;2023-07-29T06:05:37;19.30;99.90
7159;DHT22;63175;52.374;13.132;2023-07-29T06:08:04;19.40;99.90
7159;DHT22;63175;52.374;13.132;2023-07-29T06:10:31;19.40;99.90
7159;DHT22;63175;52.374;13.132;2023-07-29T06:12:58;19.40;99.90
7159;DHT22;63175;52.374;13.132;2023-07-29T06:15:26;19.40;99.90
7159;DHT22;63175;52.374;13.132;2023-07-29T06:17:53;19.50;99.90
7159;DHT22;63175;52.374;13.132;2023-07-29T06:20:20;19.50;99.90
7159;DHT22;63175;52.374;13.132;2023-07-29T06:22:47;19.60;99.90
7159;DHT22;63175;52.374;13.132;2023-07-29T06:25:13;19.60;99.90
7159;DHT22;63175;52.374;13.132;2023-07-29T06:27:40;19.70;99.90
7159;DHT22;63175;52.374;13.132;2023-07-29T06:30:08;19.90;99.90
7159;DHT22;63175;52.374;13.132;2023-07-29T06:32:36;20.00;99.90
7159;DHT22;63175;52.374;13.132;2023-07-29T06:35:03;20.20;99.90
7159;DHT22;63175;52.374;13.132;2023-07-29T06:37:30;20.40;99.90
7159;DHT22;63175;52.374;13.132;2023-07-29T06:39:58;20.60;99.90
7159;DHT22;63175;52.374;13.132;2023-07-29T06:42:25;20.80;99.90
7159;DHT22;63175;52.374;13.132;2023-07-29T06:44:52;21.00;99.90
7159;DHT22;63175;52.374;13.132;2023-07-29T06:47:19;21.30;99.90
7159;DHT22;63175;52.374;13.132;2023-07-29T06:49:47;21.50;99.90
7159;DHT22;63175;52.374;13.132;2023-07-29T06:52:14;21.70;99.90
7159;DHT22;63175;52.374;13.132;2023-07-29T06:54:41;21.90;99.90
7159;DHT22;63175;52.374;13.132;2023-07-29T06:57:07;22.00;99.90
7159;DHT22;63175;52.374;13.132;2023-07-29T06:59:34;22.10;99.90
7159;DHT22;63175;52.374;13.132;2023-07-29T07:02:01;22.20;99.90
7159;DHT22;63175;52.374;13.132;2023-07-29T07:04:28;22.30;99.90
7159;DHT22;63175;52.374;13.132;2023-07-29T07:06:56;22.40;99.90
7159;DHT22;63175;52.374;13.132;2023-07-29T07:09:23;22.60;99.90
7159;DHT22;63175;52.374;13.132;2023-07-29T07:11:50;22.60;99.90
7159;DHT22;63175;52.374;13.132;2023-07-29T07:14:16;22.70;99.90
7159;DHT22;63175;52.374;13.132;2023-07-29T07:16:44;22.70;99.90
7159;DHT22;63175;52.374;13.132;2023-07-29T07:19:11;22.80;99.90
7159;DHT22;63175;52.374;13.132;2023-07-29T07:21:38;22.90;99.90
7159;DHT22;63175;52.374;13.132;2023-07-29T07:24:06;23.00;99.90
7159;DHT22;63175;52.374;13.132;2023-07-29T07:26:33;23.10;99.90
7159;DHT22;63175;52.374;13.132;2023-07-29T07:29:00;23.20;99.90
7159;DHT22;63175;52.374;13.132;2023-07-29T07:31:27;23.30;99.90
7159;DHT22;63175;52.374;13.132;2023-07-29T07:33:53;23.30;99.90
7159;DHT22;63175;52.374;13.132;2023-07-29T07:36:20;23.40;99.90
7159;DHT22;63175;52.374;13.132;2023-07-29T07:38:47;23.40;99.90
7159;DHT22;63175;52.374;13.132;2023-07-29T07:41:15;23.50;99.90
7159;DHT22;63175;52.374;13.132;2023-07-29T07:43:42;23.50;99.90
7159;DHT22;63175;52.374;13.132;2023-07-29T07:46:09;23.60;99.90
7159;DHT22;63175;52.374;13.132;2023-07-29T07:48:36;23.60;99.90
7159;DHT22;63175;52.374;13.132;2023-07-29T07:51:10;23.60;99.90
7159;DHT22;63175;52.374;13.132;2023-07-29T07:53:37;23.70;99.90
7159;DHT22;63175;52.374;13.132;2023-07-29T07:56:04;23.80;99.90
7159;DHT22;63175;52.374;13.132;2023-07-29T07:58:32;24.00;99.90
7159;DHT22;63175;52.374;13.132;2023-07-29T08:01:03;24.10;99.90
7159;DHT22;63175;52.374;13.132;2023-07-29T08:03:30;24.20;99.90
7159;DHT22;63175;52.374;13.132;2023-07-29T08:05:57;24.30;99.90
7159;DHT22;63175;52.374;13.132;2023-07-29T08:08:24;24.40;99.90
7159;DHT22;63175;52.374;13.132;2023-07-29T08:10:52;24.40;99.90
7159;DHT22;63175;52.374;13.132;2023-07-29T08:13:19;24.50;99.90
7159;DHT22;63175;52.374;13.132;2023-07-29T08:15:48;24.40;99.90
7159;DHT22;63175;52.374;13.132;2023-07-29T08:18:15;24.30;99.90
7159;DHT22;63175;52.374;13.132;2023-07-29T08:20:51;24.30;99.90
7159;DHT22;63175;52.374;13.132;2023-07-29T08:23:18;24.30;99.90
7159;DHT22;63175;52.374;13.132;2023-07-29T08:25:45;24.30;99.90
7159;DHT22;63175;52.374;13.132;2023-07-29T08:28:16;24.30;99.90
7159;DHT22;63175;52.374;13.132;2023-07-29T08:30:43;24.30;99.90
7159;DHT22;63175;52.374;13.132;2023-07-29T08:33:11;24.20;99.90
7159;DHT22;63175;52.374;13.132;2023-07-29T08:35:38;24.20;99.90
7159;DHT22;63175;52.374;13.132;2023-07-29T08:38:04;24.20;99.90
7159;DHT22;63175;52.374;13.132;2023-07-29T08:40:32;24.20;99.90
7159;DHT22;63175;52.374;13.132;2023-07-29T08:43:03;24.20;99.90
7159;DHT22;63175;52.374;13.132;2023-07-29T08:45:34;24.30;99.90
7159;DHT22;63175;52.374;13.132;2023-07-29T08:48:03;24.30;99.90
7159;DHT22;63175;52.374;13.132;2023-07-29T08:50:36;24.40;99.90
7159;DHT22;63175;52.374;13.132;2023-07-29T08:53:04;24.40;99.90
7159;DHT22;63175;52.374;13.132;2023-07-29T08:55:32;24.40;99.90
7159;DHT22;63175;52.374;13.132;2023-07-29T08:57:59;24.40;99.90
7159;DHT22;63175;52.374;13.132;2023-07-29T09:00:27;24.50;99.90
7159;DHT22;63175;52.374;13.132;2023-07-29T09:02:54;24.50;99.90
7159;DHT22;63175;52.374;13.132;2023-07-29T09:05:21;24.70;99.90
7159;DHT22;63175;52.374;13.132;2023-07-29T09:07:50;24.80;99.90
7159;DHT22;63175;52.374;13.132;2023-07-29T09:10:21;25.00;99.90
7159;DHT22;63175;52.374;13.132;2023-07-29T09:12:48;25.10;99.90
7159;DHT22;63175;52.374;13.132;2023-07-29T09:15:26;25.30;99.90
7159;DHT22;63175;52.374;13.132;2023-07-29T09:17:53;25.30;99.90
7159;DHT22;63175;52.374;13.132;2023-07-29T09:20:24;25.30;99.90
7159;DHT22;63175;52.374;13.132;2023-07-29T09:22:53;25.30;99.90
7159;DHT22;63175;52.374;13.132;2023-07-29T09:25:23;25.20;99.90
7159;DHT22;63175;52.374;13.132;2023-07-29T09:27:53;25.20;99.90
7159;DHT22;63175;52.374;13.132;2023-07-29T09:30:24;25.20;99.90
7159;DHT22;63175;52.374;13.132;2023-07-29T09:32:55;25.20;99.90
7159;DHT22;63175;52.374;13.132;2023-07-29T09:35:22;25.20;99.90
7159;DHT22;63175;52.374;13.132;2023-07-29T09:37:51;25.30;99.90
7159;DHT22;63175;52.374;13.132;2023-07-29T09:40:18;25.50;99.90
7159;DHT22;63175;52.374;13.132;2023-07-29T09:42:49;25.60;99.90
7159;DHT22;63175;52.374;13.132;2023-07-29T09:45:20;25.70;99.90
7159;DHT22;63175;52.374;13.132;2023-07-29T09:47:47;25.70;99.90
7159;DHT22;63175;52.374;13.132;2023-07-29T09:50:15;25.70;99.90
7159;DHT22;63175;52.374;13.132;2023-07-29T09:52:42;25.70;99.90
7159;DHT22;63175;52.374;13.132;2023-07-29T09:55:12;25.60;99.90
7159;DHT22;63175;52.374;13.132;2023-07-29T09:57:39;25.50;99.90
7159;DHT22;63175;52.374;13.132;2023-07-29T10:00:07;25.30;99.90
7159;DHT22;63175;52.374;13.132;2023-07-29T10:02:37;25.20;99.90
7159;DHT22;63175;52.374;13.132;2023-07-29T10:05:05;25.10;99.90
7159;DHT22;63175;52.374;13.132;2023-07-29T10:07:33;25.10;99.90
7159;DHT22;63175;52.374;13.132;2023-07-29T10:10:02;25.30;99.90
7159;DHT22;63175;52.374;13.132;2023-07-29T10:12:31;25.40;99.90
7159;DHT22;63175;52.374;13.132;2023-07-29T10:14:59;25.70;99.90
7159;DHT22;63175;52.374;13.132;2023-07-29T10:17:26;25.80;99.90
7159;DHT22;63175;52.374;13.132;2023-07-29T10:19:55;26.00;99.90
7159;DHT22;63175;52.374;13.132;2023-07-29T10:22:25;26.00;99.90
7159;DHT22;63175;52.374;13.132;2023-07-29T10:24:56;26.00;99.90
7159;DHT22;63175;52.374;13.132;2023-07-29T10:27:24;26.00;99.90
7159;DHT22;63175;52.374;13.132;2023-07-29T10:29:55;25.90;99.90
7159;DHT22;63175;52.374;13.132;2023-07-29T10:32:25;26.00;99.90
7159;DHT22;63175;52.374;13.132;2023-07-29T10:34:52;26.00;99.90
7159;DHT22;63175;52.374;13.132;2023-07-29T10:37:19;25.90;99.90
7159;DHT22;63175;52.374;13.132;2023-07-29T10:39:54;25.80;99.90
7159;DHT22;63175;52.374;13.132;2023-07-29T10:42:22;25.80;99.90
7159;DHT22;63175;52.374;13.132;2023-07-29T10:44:50;25.60;99.90
7159;DHT22;63175;52.374;13.132;2023-07-29T10:47:21;25.40;99.90
7159;DHT22;63175;52.374;13.132;2023-07-29T10:49:49;25.20;99.90
7159;DHT22;63175;52.374;13.132;2023-07-29T10:52:30;25.00;99.90
7159;DHT22;63175;52.374;13.132;2023-07-29T10:54:57;24.60;99.90
7159;DHT22;63175;52.374;13.132;2023-07-29T10:57:31;24.20;99.90
7159;DHT22;63175;52.374;13.132;2023-07-29T10:59:59;23.80;99.90
7159;DHT22;63175;52.374;13.132;2023-07-29T11:02:31;23.50;99.90
7159;DHT22;63175;52.374;13.132;2023-07-29T11:04:59;23.30;99.90
7159;DHT22;63175;52.374;13.132;2023-07-29T11:07:27;23.20;99.90
7159;DHT22;63175;52.374;13.132;2023-07-29T11:09:56;23.30;99.90
7159;DHT22;63175;52.374;13.132;2023-07-29T11:12:43;23.40;99.90
7159;DHT22;63175;52.374;13.132;2023-07-29T11:15:24;23.50;99.90
7159;DHT22;63175;52.374;13.132;2023-07-29T11:17:54;23.50;99.90
7159;DHT22;63175;52.374;13.132;2023-07-29T11:20:23;23.40;99.90
7159;DHT22;63175;52.374;13.132;2023-07-29T11:22:50;23.40;99.90
7159;DHT22;63175;52.374;13.132;2023-07-29T11:25:18;23.40;99.90
7159;DHT22;63175;52.374;13.132;2023-07-29T11:27:46;23.50;99.90
7159;DHT22;63175;52.374;13.132;2023-07-29T11:30:14;23.50;99.90
7159;DHT22;63175;52.374;13.132;2023-07-29T11:32:42;23.50;99.90
7159;DHT22;63175;52.374;13.132;2023-07-29T11:35:12;23.50;99.90
7159;DHT22;63175;52.374;13.132;2023-07-29T11:37:41;23.40;99.90
7159;DHT22;63175;52.374;13.132;2023-07-29T11:40:08;23.30;99.90
7159;DHT22;63175;52.374;13.132;2023-07-29T11:42:37;23.30;99.90
7159;DHT22;63175;52.374;13.132;2023-07-29T11:45:04;23.20;99.90
7159;DHT22;63175;52.374;13.132;2023-07-29T11:47:32;23.20;99.90
7159;DHT22;63175;52.374;13.132;2023-07-29T11:50:04;23.10;99.90
7159;DHT22;63175;52.374;13.132;2023-07-29T11:52:33;23.10;99.90
7159;DHT22;63175;52.374;13.132;2023-07-29T11:55:00;23.00;99.90
7159;DHT22;63175;52.374;13.132;2023-07-29T11:57:28;23.00;99.90
7159;DHT22;63175;52.374;13.132;2023-07-29T11:59:55;23.00;99.90
7159;DHT22;63175;52.374;13.132;2023-07-29T12:02:23;22.90;99.90
7159;DHT22;63175;52.374;13.132;2023-07-29T12:04:51;22.80;99.90
7159;DHT22;63175;52.374;13.132;2023-07-29T12:07:19;22.70;99.90
7159;DHT22;63175;52.374;13.132;2023-07-29T12:09:47;22.70;99.90
7159;DHT22;63175;52.374;13.132;2023-07-29T12:12:16;22.60;99.90
7159;DHT22;63175;52.374;13.132;2023-07-29T12:14:44;22.50;99.90
7159;DHT22;63175;52.374;13.132;2023-07-29T12:17:12;22.40;99.90
7159;DHT22;63175;52.374;13.132;2023-07-29T12:19:40;22.50;99.90
7159;DHT22;63175;52.374;13.132;2023-07-29T12:22:08;22.50;99.90
7159;DHT22;63175;52.374;13.132;2023-07-29T12:24:38;22.70;99.90
7159;DHT22;63175;52.374;13.132;2023-07-29T12:27:10;22.80;99.90
7159;DHT22;63175;52.374;13.132;2023-07-29T12:29:40;23.00;99.90
7159;DHT22;63175;52.374;13.132;2023-07-29T12:32:08;23.10;99.90
7159;DHT22;63175;52.374;13.132;2023-07-29T12:34:36;23.30;99.90
7159;DHT22;63175;52.374;13.132;2023-07-29T12:37:05;23.60;99.90
7159;DHT22;63175;52.374;13.132;2023-07-29T12:39:33;23.80;99.90
7159;DHT22;63175;52.374;13.132;2023-07-29T12:42:02;23.90;99.90
7159;DHT22;63175;52.374;13.132;2023-07-29T12:44:32;24.00;99.90
7159;DHT22;63175;52.374;13.132;2023-07-29T12:47:00;24.00;99.90
7159;DHT22;63175;52.374;13.132;2023-07-29T12:49:28;24.00;99.90
7159;DHT22;63175;52.374;13.132;2023-07-29T12:51:55;24.10;99.90
7159;DHT22;63175;52.374;13.132;2023-07-29T12:54:22;24.30;99.90
7159;DHT22;63175;52.374;13.132;2023-07-29T12:56:49;24.50;99.90
7159;DHT22;63175;52.374;13.132;2023-07-29T12:59:16;24.70;99.90
7159;DHT22;63175;52.374;13.132;2023-07-29T13:01:44;24.90;99.90
7159;DHT22;63175;52.374;13.132;2023-07-29T13:04:11;25.20;99.90
7159;DHT22;63175;52.374;13.132;2023-07-29T13:06:38;25.40;99.90
7159;DHT22;63175;52.374;13.132;2023-07-29T13:09:05;25.80;99.90
7159;DHT22;63175;52.374;13.132;2023-07-29T13:11:32;26.00;99.90
7159;DHT22;63175;52.374;13.132;2023-07-29T13:13:59;26.10;99.90
7159;DHT22;63175;52.374;13.132;2023-07-29T13:16:27;26.00;99.90
7159;DHT22;63175;52.374;13.132;2023-07-29T13:18:55;26.10;99.90
7159;DHT22;63175;52.374;13.132;2023-07-29T13:21:23;26.40;99.90
7159;DHT22;63175;52.374;13.132;2023-07-29T13:23:50;26.70;99.90
7159;DHT22;63175;52.374;13.132;2023-07-29T13:26:17;27.00;99.90
7159;DHT22;63175;52.374;13.132;2023-07-29T13:28:44;27.20;99.90
7159;DHT22;63175;52.374;13.132;2023-07-29T13:31:11;27.30;99.90
7159;DHT22;63175;52.374;13.132;2023-07-29T13:33:38;27.40;99.90
7159;DHT22;63175;52.374;13.132;2023-07-29T13:36:06;27.60;99.90
7159;DHT22;63175;52.374;13.132;2023-07-29T13:38:34;27.70;99.90
7159;DHT22;63175;52.374;13.132;2023-07-29T13:41:01;27.50;99.90
7159;DHT22;63175;52.374;13.132;2023-07-29T13:43:28;27.30;99.90
7159;DHT22;63175;52.374;13.132;2023-07-29T13:45:55;27.10;99.90
7159;DHT22;63175;52.374;13.132;2023-07-29T13:48:22;27.00;99.90
7159;DHT22;63175;52.374;13.132;2023-07-29T13:50:48;27.30;99.90
7159;DHT22;63175;52.374;13.132;2023-07-29T13:53:18;27.50;99.90
7159;DHT22;63175;52.374;13.132;2023-07-29T13:55:44;27.50;99.90
7159;DHT22;63175;52.374;13.132;2023-07-29T13:58:11;27.90;99.90
7159;DHT22;63175;52.374;13.132;2023-07-29T14:00:38;28.50;99.90
7159;DHT22;63175;52.374;13.132;2023-07-29T14:03:05;29.20;99.90
7159;DHT22;63175;52.374;13.132;2023-07-29T14:05:32;29.90;99.90
7159;DHT22;63175;52.374;13.132;2023-07-29T14:07:59;30.40;99.90
7159;DHT22;63175;52.374;13.132;2023-07-29T14:10:27;30.30;99.90
7159;DHT22;63175;52.374;13.132;2023-07-29T14:12:54;30.00;99.90
7159;DHT22;63175;52.374;13.132;2023-07-29T14:15:21;29.50;99.90
7159;DHT22;63175;52.374;13.132;2023-07-29T14:17:48;29.10;99.90
7159;DHT22;63175;52.374;13.132;2023-07-29T14:20:15;28.80;99.90
7159;DHT22;63175;52.374;13.132;2023-07-29T14:22:42;29.20;99.90
7159;DHT22;63175;52.374;13.132;2023-07-29T14:25:09;29.50;99.90
7159;DHT22;63175;52.374;13.132;2023-07-29T14:27:37;29.70;99.90
7159;DHT22;63175;52.374;13.132;2023-07-29T14:30:05;29.80;99.80
7159;DHT22;63175;52.374;13.132;2023-07-29T14:32:32;29.90;99.20
7159;DHT22;63175;52.374;13.132;2023-07-29T14:34:59;29.90;98.20
7159;DHT22;63175;52.374;13.132;2023-07-29T14:37:29;29.90;98.00
7159;DHT22;63175;52.374;13.132;2023-07-29T14:39:56;29.70;98.20
7159;DHT22;63175;52.374;13.132;2023-07-29T14:42:23;29.60;98.40
7159;DHT22;63175;52.374;13.132;2023-07-29T14:44:51;29.20;98.90
7159;DHT22;63175;52.374;13.132;2023-07-29T14:47:18;28.70;99.50
7159;DHT22;63175;52.374;13.132;2023-07-29T14:49:45;28.10;99.80
7159;DHT22;63175;52.374;13.132;2023-07-29T14:52:12;27.60;99.90
7159;DHT22;63175;52.374;13.132;2023-07-29T14:54:38;27.20;99.90
7159;DHT22;63175;52.374;13.132;2023-07-29T14:57:07;26.90;99.90
7159;DHT22;63175;52.374;13.132;2023-07-29T14:59:34;26.70;99.90
7159;DHT22;63175;52.374;13.132;2023-07-29T15:02:02;26.50;99.90
7159;DHT22;63175;52.374;13.132;2023-07-29T15:04:29;26.30;99.90
7159;DHT22;63175;52.374;13.132;2023-07-29T15:06:55;26.20;99.90
7159;DHT22;63175;52.374;13.132;2023-07-29T15:09:23;26.30;99.90
7159;DHT22;63175;52.374;13.132;2023-07-29T15:11:50;26.50;99.90
7159;DHT22;63175;52.374;13.132;2023-07-29T15:14:17;26.70;99.90
7159;DHT22;63175;52.374;13.132;2023-07-29T15:16:44;26.80;99.90
7159;DHT22;63175;52.374;13.132;2023-07-29T15:19:12;26.80;99.90
7159;DHT22;63175;52.374;13.132;2023-07-29T15:21:39;26.70;99.90
7159;DHT22;63175;52.374;13.132;2023-07-29T15:24:06;26.50;99.90
7159;DHT22;63175;52.374;13.132;2023-07-29T15:26:34;26.10;99.90
7159;DHT22;63175;52.374;13.132;2023-07-29T15:29:01;24.80;99.90
7159;DHT22;63175;52.374;13.132;2023-07-29T15:31:28;23.50;99.90
7159;DHT22;63175;52.374;13.132;2023-07-29T15:33:55;22.60;99.90